createdAt,value
2023-05-22T00:00:19.295Z,65.55
2023-05-22T00:01:19.336Z,65.52
2023-05-22T00:02:19.354Z,65.82
2023-05-22T00:03:19.280Z,65.62
2023-05-22T00:04:19.247Z,65.72
2023-05-22T00:05:19.242Z,65.65
2023-05-22T00:06:19.214Z,65.85
2023-05-22T00:07:19.224Z,65.75
2023-05-22T00:08:19.186Z,65.72
2023-05-22T00:09:19.188Z,65.85
2023-05-22T00:10:19.164Z,65.85
2023-05-22T00:11:19.261Z,65.95
2023-05-22T00:12:19.143Z,65.85
2023-05-22T00:13:19.126Z,65.85
2023-05-22T00:14:19.112Z,65.95
2023-05-22T00:15:19.105Z,65.85
2023-05-22T00:16:19.097Z,65.95
2023-05-22T00:17:19.133Z,65.85
2023-05-22T00:18:19.059Z,65.85
2023-05-22T00:19:19.063Z,65.85
2023-05-22T00:20:19.047Z,65.85
2023-05-22T00:21:19.020Z,65.85
2023-05-22T00:22:19.006Z,65.85
2023-05-22T00:23:19.024Z,65.65
2023-05-22T00:24:18.988Z,65.75
2023-05-22T00:25:18.992Z,65.75
2023-05-22T00:26:18.958Z,65.85
2023-05-22T00:27:18.951Z,65.78
2023-05-22T00:28:18.934Z,65.78
2023-05-22T00:29:18.922Z,65.88
2023-05-22T00:30:18.906Z,65.88
2023-05-22T00:31:18.891Z,65.68
2023-05-22T00:32:18.879Z,65.78
2023-05-22T00:33:18.887Z,65.99
2023-05-22T00:34:18.872Z,65.99
2023-05-22T00:35:18.841Z,66.08
2023-05-22T00:36:18.824Z,66.08
2023-05-22T00:37:18.828Z,66.08
2023-05-22T00:38:18.810Z,66.19
2023-05-22T00:39:18.794Z,66.19
2023-05-22T00:40:18.787Z,65.99
2023-05-22T00:41:18.769Z,66.19
2023-05-22T00:42:18.773Z,66.08
2023-05-22T00:43:18.760Z,66.19
2023-05-22T00:44:18.745Z,65.99
2023-05-22T00:45:18.766Z,66.29
2023-05-22T00:46:18.743Z,66.08
2023-05-22T00:47:18.688Z,66.29
2023-05-22T00:48:18.679Z,66.08
2023-05-22T00:49:18.667Z,66.08
2023-05-22T00:50:18.656Z,65.99
2023-05-22T00:51:18.633Z,66.29
2023-05-22T00:52:18.621Z,66.49
2023-05-22T00:53:18.609Z,66.39
2023-05-22T00:54:18.594Z,66.49
2023-05-22T00:55:18.596Z,66.39
2023-05-22T00:56:18.568Z,66.39
2023-05-22T00:57:18.559Z,66.39
2023-05-22T00:58:18.568Z,66.39
2023-05-22T00:59:18.544Z,66.49
2023-05-22T01:00:18.520Z,66.39
2023-05-22T01:01:18.552Z,66.39
2023-05-22T01:02:18.503Z,66.49
2023-05-22T01:03:18.664Z,66.56
2023-05-22T01:04:18.588Z,66.36
2023-05-22T01:05:18.514Z,66.36
2023-05-22T01:06:18.442Z,66.46
2023-05-22T01:07:18.423Z,66.49
2023-05-22T01:08:18.418Z,66.46
2023-05-22T01:09:18.409Z,66.29
2023-05-22T01:10:18.395Z,66.36
2023-05-22T01:11:18.369Z,66.36
2023-05-22T01:12:18.362Z,66.26
2023-05-22T01:13:18.348Z,66.56
2023-05-22T01:14:18.329Z,66.77
2023-05-22T01:15:18.335Z,66.66
2023-05-22T01:16:18.480Z,66.77
2023-05-22T01:17:18.296Z,66.66
2023-05-22T01:18:18.281Z,66.77
2023-05-22T01:19:18.349Z,66.66
2023-05-22T01:20:18.259Z,66.66
2023-05-22T01:21:18.247Z,66.66
2023-05-22T01:22:18.232Z,66.66
2023-05-22T01:23:18.221Z,66.66
2023-05-22T01:24:18.198Z,66.66
2023-05-22T01:25:18.213Z,66.66
2023-05-22T01:26:18.180Z,66.66
2023-05-22T01:27:18.165Z,66.66
2023-05-22T01:28:18.151Z,66.66
2023-05-22T01:29:18.142Z,66.46
2023-05-22T01:30:18.136Z,66.77
2023-05-22T01:31:18.117Z,66.53
2023-05-22T01:32:18.107Z,66.36
2023-05-22T01:33:18.242Z,66.43
2023-05-22T01:34:18.079Z,66.46
2023-05-22T01:35:18.072Z,66.56
2023-05-22T01:36:18.057Z,66.46
2023-05-22T01:37:18.056Z,66.66
2023-05-22T01:38:18.024Z,66.77
2023-05-22T01:39:18.039Z,66.56
2023-05-22T01:40:18.015Z,66.66
2023-05-22T01:41:17.985Z,66.77
2023-05-22T01:42:17.980Z,66.56
2023-05-22T01:43:17.988Z,66.56
2023-05-22T01:44:17.948Z,66.36
2023-05-22T01:45:17.934Z,66.66
2023-05-22T01:46:18.042Z,66.66
2023-05-22T01:47:17.900Z,66.77
2023-05-22T01:48:17.990Z,66.77
2023-05-22T01:49:17.876Z,66.66
2023-05-22T01:50:17.869Z,66.77
2023-05-22T01:51:17.851Z,66.77
2023-05-22T01:52:17.845Z,66.66
2023-05-22T01:53:17.824Z,66.77
2023-05-22T01:54:17.811Z,66.60
2023-05-22T01:55:17.817Z,66.56
2023-05-22T01:56:17.828Z,66.60
2023-05-22T01:57:17.777Z,66.80
2023-05-22T01:58:17.762Z,66.90
2023-05-22T01:59:17.747Z,66.90
2023-05-22T02:00:17.739Z,67.00
2023-05-22T02:01:17.756Z,66.69
2023-05-22T02:02:17.752Z,66.60
2023-05-22T02:03:17.885Z,66.49
2023-05-22T02:04:17.686Z,66.90
2023-05-22T02:05:17.672Z,66.49
2023-05-22T02:06:17.658Z,66.90
2023-05-22T02:07:17.643Z,67.00
2023-05-22T02:08:17.629Z,66.69
2023-05-22T02:09:17.615Z,67.10
2023-05-22T02:10:17.613Z,66.69
2023-05-22T02:11:17.589Z,67.10
2023-05-22T02:12:17.613Z,66.83
2023-05-22T02:13:17.571Z,66.93
2023-05-22T02:14:17.549Z,66.60
2023-05-22T02:15:17.535Z,66.90
2023-05-22T02:16:17.747Z,66.63
2023-05-22T02:17:17.515Z,66.93
2023-05-22T02:18:17.496Z,66.90
2023-05-22T02:19:17.502Z,66.93
2023-05-22T02:20:17.682Z,66.83
2023-05-22T02:21:17.459Z,66.90
2023-05-22T02:22:17.445Z,66.80
2023-05-22T02:23:17.443Z,67.10
2023-05-22T02:24:17.426Z,67.24
2023-05-22T02:25:17.732Z,67.13
2023-05-22T02:26:17.396Z,67.33
2023-05-22T02:27:17.437Z,67.33
2023-05-22T02:28:17.364Z,67.30
2023-05-22T02:29:17.363Z,67.10
2023-05-22T02:30:17.350Z,67.33
2023-05-22T02:31:17.411Z,67.33
2023-05-22T02:32:17.314Z,67.24
2023-05-22T02:33:17.301Z,67.13
2023-05-22T02:34:17.283Z,66.93
2023-05-22T02:35:17.275Z,67.24
2023-05-22T02:36:17.260Z,67.13
2023-05-22T02:37:17.249Z,67.13
2023-05-22T02:38:17.242Z,67.03
2023-05-22T02:39:17.220Z,67.13
2023-05-22T02:40:17.208Z,67.13
2023-05-22T02:41:17.191Z,67.24
2023-05-22T02:42:17.180Z,67.24
2023-05-22T02:43:17.169Z,67.06
2023-05-22T02:44:17.154Z,67.33
2023-05-22T02:45:17.150Z,67.03
2023-05-22T02:46:17.148Z,67.54
2023-05-22T02:47:17.113Z,67.36
2023-05-22T02:48:17.145Z,67.44
2023-05-22T02:49:17.090Z,67.33
2023-05-22T02:50:17.072Z,67.33
2023-05-22T02:51:17.060Z,67.33
2023-05-22T02:52:17.052Z,67.24
2023-05-22T02:53:17.041Z,67.03
2023-05-22T02:54:17.014Z,67.24
2023-05-22T02:55:17.002Z,67.13
2023-05-22T02:56:16.996Z,67.57
2023-05-22T02:57:16.977Z,67.16
2023-05-22T02:58:16.975Z,67.47
2023-05-22T02:59:16.949Z,67.33
2023-05-22T03:00:16.968Z,67.36
2023-05-22T03:01:16.950Z,67.36
2023-05-22T03:02:16.914Z,67.36
2023-05-22T03:03:17.012Z,67.47
2023-05-22T03:04:16.886Z,67.36
2023-05-22T03:05:16.873Z,67.36
2023-05-22T03:06:16.854Z,67.47
2023-05-22T03:07:16.841Z,67.57
2023-05-22T03:08:16.829Z,67.57
2023-05-22T03:09:16.814Z,67.57
2023-05-22T03:10:16.812Z,67.57
2023-05-22T03:11:16.788Z,67.57
2023-05-22T03:12:16.776Z,67.36
2023-05-22T03:13:16.766Z,67.36
2023-05-22T03:14:16.749Z,67.54
2023-05-22T03:15:16.735Z,67.57
2023-05-22T03:16:16.774Z,67.57
2023-05-22T03:17:16.716Z,67.57
2023-05-22T03:18:16.694Z,67.67
2023-05-22T03:19:16.745Z,67.67
2023-05-22T03:20:16.680Z,67.77
2023-05-22T03:21:16.666Z,67.67
2023-05-22T03:22:16.728Z,67.77
2023-05-22T03:23:16.629Z,67.77
2023-05-22T03:24:16.629Z,67.77
2023-05-22T03:25:16.605Z,67.36
2023-05-22T03:26:16.593Z,67.67
2023-05-22T03:27:16.594Z,67.67
2023-05-22T03:28:16.568Z,67.67
2023-05-22T03:29:16.612Z,67.77
2023-05-22T03:30:16.549Z,67.67
2023-05-22T03:31:16.534Z,67.57
2023-05-22T03:32:16.539Z,67.57
2023-05-22T03:33:16.529Z,67.67
2023-05-22T03:34:16.491Z,67.57
2023-05-22T03:35:16.532Z,67.77
2023-05-22T03:36:16.454Z,67.47
2023-05-22T03:37:16.464Z,67.57
2023-05-22T03:38:16.444Z,67.77
2023-05-22T03:39:16.432Z,67.27
2023-05-22T03:40:16.572Z,67.47
2023-05-22T03:41:16.421Z,67.67
2023-05-22T03:42:16.413Z,67.67
2023-05-22T03:43:16.369Z,67.57
2023-05-22T03:44:16.354Z,67.67
2023-05-22T03:45:16.343Z,67.36
2023-05-22T03:46:16.334Z,67.67
2023-05-22T03:47:16.328Z,67.57
2023-05-22T03:48:16.320Z,67.71
2023-05-22T03:49:16.287Z,67.67
2023-05-22T03:50:16.274Z,67.57
2023-05-22T03:51:18.080Z,67.67
2023-05-22T03:52:16.254Z,67.57
2023-05-22T03:53:16.236Z,67.47
2023-05-22T03:54:16.216Z,67.57
2023-05-22T03:55:16.200Z,67.47
2023-05-22T03:56:16.554Z,67.36
2023-05-22T03:57:16.207Z,67.36
2023-05-22T03:58:16.167Z,67.16
2023-05-22T03:59:16.154Z,67.16
2023-05-22T04:00:16.133Z,67.06
2023-05-22T04:01:16.124Z,67.36
2023-05-22T04:02:16.156Z,67.27
2023-05-22T04:03:16.209Z,67.27
2023-05-22T04:04:16.083Z,67.16
2023-05-22T04:05:16.121Z,67.27
2023-05-22T04:06:16.057Z,67.06
2023-05-22T04:07:16.046Z,67.27
2023-05-22T04:08:16.025Z,67.27
2023-05-22T04:09:16.025Z,67.47
2023-05-22T04:10:25.199Z,67.47
2023-05-22T04:12:21.088Z,66.86
2023-05-22T04:13:20.915Z,67.03
2023-05-22T04:15:25.273Z,66.93
2023-05-22T04:16:25.707Z,66.83
2023-05-22T04:20:25.880Z,67.00
2023-05-22T04:21:26.208Z,67.10
2023-05-22T04:23:31.436Z,66.90
2023-05-22T04:24:31.502Z,66.69
2023-05-22T04:25:31.398Z,66.90
2023-05-22T04:26:31.113Z,66.80
2023-05-22T04:27:31.117Z,66.90
2023-05-22T04:28:31.127Z,66.80
2023-05-22T04:29:31.406Z,66.86
2023-05-22T04:30:31.376Z,66.77
2023-05-22T04:31:31.424Z,66.77
2023-05-22T04:32:30.938Z,66.77
2023-05-22T04:33:30.900Z,66.86
2023-05-22T04:34:30.885Z,66.56
2023-05-22T04:35:30.878Z,66.77
2023-05-22T04:36:30.879Z,66.66
2023-05-22T04:37:30.863Z,66.63
2023-05-22T04:38:30.842Z,66.83
2023-05-22T04:39:30.822Z,66.23
2023-05-22T04:40:30.805Z,66.33
2023-05-22T04:41:30.794Z,66.33
2023-05-22T04:42:30.799Z,66.43
2023-05-22T04:43:30.769Z,66.30
2023-05-22T04:44:30.753Z,66.40
2023-05-22T04:45:30.756Z,66.30
2023-05-22T04:46:30.771Z,66.37
2023-05-22T04:47:30.748Z,66.27
2023-05-22T04:48:30.708Z,66.27
2023-05-22T04:49:30.694Z,66.37
2023-05-22T04:50:30.687Z,66.24
2023-05-22T04:51:30.665Z,66.33
2023-05-22T04:52:30.671Z,66.44
2023-05-22T04:53:30.640Z,66.20
2023-05-22T04:54:30.629Z,66.20
2023-05-22T04:55:30.610Z,66.10
2023-05-22T04:57:30.589Z,65.97
2023-05-22T04:58:30.569Z,65.73
2023-05-22T04:59:30.565Z,65.64
2023-05-22T05:00:30.556Z,65.73
2023-05-22T05:01:33.087Z,65.53
2023-05-22T05:02:30.552Z,65.70
2023-05-22T05:03:30.558Z,65.40
2023-05-22T05:04:30.504Z,65.10
2023-05-22T05:05:30.479Z,65.07
2023-05-22T05:06:30.468Z,65.37
2023-05-22T05:07:30.455Z,65.67
2023-05-22T05:08:30.439Z,64.94
2023-05-22T05:09:30.432Z,64.94
2023-05-22T05:10:30.415Z,65.14
2023-05-22T05:11:30.404Z,65.21
2023-05-22T05:12:30.385Z,64.90
2023-05-22T05:13:30.379Z,65.08
2023-05-22T05:14:30.378Z,65.08
2023-05-22T05:15:30.354Z,64.98
2023-05-22T05:16:30.419Z,64.47
2023-05-22T05:17:30.360Z,64.84
2023-05-22T05:18:30.317Z,64.44
2023-05-22T05:19:30.448Z,64.54
2023-05-22T05:20:30.306Z,64.51
2023-05-22T05:21:30.277Z,64.81
2023-05-22T05:22:30.377Z,64.38
2023-05-22T05:23:30.261Z,64.58
2023-05-22T05:24:30.240Z,64.58
2023-05-22T05:25:30.228Z,64.55
2023-05-22T05:26:30.212Z,64.35
2023-05-22T05:27:30.210Z,64.55
2023-05-22T05:28:30.189Z,64.52
2023-05-22T05:29:30.184Z,64.32
2023-05-22T05:30:30.161Z,64.19
2023-05-22T05:31:30.186Z,64.29
2023-05-22T05:32:30.153Z,64.19
2023-05-22T05:33:30.128Z,63.96
2023-05-22T05:34:30.114Z,63.96
2023-05-22T05:35:30.107Z,64.26
2023-05-22T05:36:30.136Z,63.82
2023-05-22T05:37:30.079Z,63.70
2023-05-22T05:38:30.069Z,63.70
2023-05-22T05:39:30.082Z,63.59
2023-05-22T05:40:30.048Z,63.96
2023-05-22T05:41:30.090Z,63.56
2023-05-22T05:42:30.042Z,63.96
2023-05-22T05:43:30.063Z,63.84
2023-05-22T05:44:30.018Z,63.40
2023-05-22T05:45:30.005Z,63.50
2023-05-22T05:46:30.046Z,63.20
2023-05-22T05:47:30.014Z,63.17
2023-05-22T05:48:29.968Z,63.07
2023-05-22T05:49:29.963Z,63.04
2023-05-22T05:50:29.935Z,63.14
2023-05-22T05:51:29.924Z,63.11
2023-05-22T05:52:29.913Z,62.61
2023-05-22T05:53:29.906Z,62.68
2023-05-22T05:54:29.896Z,62.58
2023-05-22T05:55:29.882Z,62.95
2023-05-22T05:56:29.870Z,62.75
2023-05-22T05:57:29.858Z,62.92
2023-05-22T05:58:29.846Z,62.72
2023-05-22T05:59:29.839Z,62.19
2023-05-22T06:00:29.893Z,62.99
2023-05-22T06:01:29.821Z,62.26
2023-05-22T06:02:29.880Z,62.23
2023-05-22T06:03:29.936Z,62.30
2023-05-22T06:04:29.793Z,61.98
2023-05-22T06:05:29.861Z,61.68
2023-05-22T06:06:29.769Z,61.65
2023-05-22T06:07:29.789Z,61.55
2023-05-22T06:08:29.758Z,61.02
2023-05-22T06:09:29.731Z,61.11
2023-05-22T06:10:29.790Z,61.09
2023-05-22T06:11:29.745Z,61.16
2023-05-22T06:12:29.742Z,60.56
2023-05-22T06:13:29.699Z,60.73
2023-05-22T06:14:29.688Z,60.60
2023-05-22T06:15:29.671Z,60.90
2023-05-22T06:16:29.834Z,60.57
2023-05-22T06:17:29.986Z,60.38
2023-05-22T06:18:29.653Z,60.25
2023-05-22T06:19:29.749Z,60.22
2023-05-22T06:20:29.682Z,59.62
2023-05-22T06:21:29.617Z,59.89
2023-05-22T06:22:29.622Z,59.99
2023-05-22T06:23:29.638Z,60.16
2023-05-22T06:24:29.590Z,59.96
2023-05-22T06:25:29.590Z,59.53
2023-05-22T06:26:29.569Z,59.04
2023-05-22T06:27:29.565Z,58.72
2023-05-22T06:28:29.554Z,58.81
2023-05-22T06:29:29.542Z,58.91
2023-05-22T06:30:39.529Z,58.78
2023-05-22T06:31:29.533Z,58.78
2023-05-22T06:32:29.599Z,58.98
2023-05-22T06:33:29.635Z,58.86
2023-05-22T06:34:29.703Z,58.65
2023-05-22T06:35:29.503Z,58.46
2023-05-22T06:36:29.494Z,58.53
2023-05-22T06:37:29.488Z,58.83
2023-05-22T06:38:29.477Z,58.13
2023-05-22T06:39:31.169Z,58.60
2023-05-22T06:40:29.504Z,58.20
2023-05-22T06:41:29.453Z,57.71
2023-05-22T06:42:29.442Z,57.88
2023-05-22T06:43:29.427Z,57.09
2023-05-22T06:44:29.428Z,57.18
2023-05-22T06:45:29.433Z,57.18
2023-05-22T06:46:29.509Z,57.18
2023-05-22T06:47:29.434Z,57.06
2023-05-22T06:48:29.395Z,57.35
2023-05-22T06:49:29.384Z,56.46
2023-05-22T06:50:29.467Z,56.54
2023-05-22T06:51:29.371Z,56.44
2023-05-22T06:52:29.357Z,56.81
2023-05-22T06:53:29.350Z,56.71
2023-05-22T06:54:29.346Z,56.91
2023-05-22T06:55:29.339Z,56.58
2023-05-22T06:56:29.332Z,56.65
2023-05-22T06:57:29.326Z,56.43
2023-05-22T06:58:29.321Z,55.81
2023-05-22T06:59:29.308Z,54.52
2023-05-22T07:00:29.428Z,52.62
2023-05-22T07:01:29.372Z,50.42
2023-05-22T07:02:29.360Z,48.54
2023-05-22T07:03:29.280Z,47.27
2023-05-22T07:04:29.277Z,46.42
2023-05-22T07:05:29.333Z,46.06
2023-05-22T07:06:29.274Z,45.14
2023-05-22T07:07:29.275Z,45.00
2023-05-22T07:08:30.732Z,44.40
2023-05-22T07:09:29.273Z,44.16
2023-05-22T07:10:29.238Z,43.95
2023-05-22T07:11:29.242Z,44.40
2023-05-22T07:12:29.261Z,43.90
2023-05-22T07:13:29.270Z,43.16
2023-05-22T07:14:29.217Z,42.93
2023-05-22T07:15:29.302Z,42.02
2023-05-22T07:16:29.269Z,41.95
2023-05-22T07:17:29.308Z,41.83
2023-05-22T07:18:29.307Z,41.50
2023-05-22T07:19:29.397Z,41.08
2023-05-22T07:20:29.298Z,41.44
2023-05-22T07:21:29.183Z,41.42
2023-05-22T07:22:29.187Z,41.37
2023-05-22T07:23:29.324Z,42.18
2023-05-22T07:24:29.174Z,42.56
2023-05-22T07:25:29.168Z,42.56
2023-05-22T07:26:29.162Z,42.06
2023-05-22T07:27:29.166Z,41.60
2023-05-22T07:28:29.155Z,41.36
2023-05-22T07:29:29.161Z,41.22
2023-05-22T07:30:29.160Z,40.61
2023-05-22T07:31:29.185Z,40.97
2023-05-22T07:32:29.241Z,41.28
2023-05-22T07:33:29.142Z,42.51
2023-05-22T07:34:29.694Z,42.86
2023-05-22T07:35:29.133Z,43.55
2023-05-22T07:36:29.151Z,42.96
2023-05-22T07:37:29.141Z,42.74
2023-05-22T07:38:29.129Z,41.51
2023-05-22T07:39:29.497Z,40.89
2023-05-22T07:40:29.124Z,40.66
2023-05-22T07:41:29.127Z,40.07
2023-05-22T07:42:29.138Z,39.67
2023-05-22T07:43:29.133Z,39.94
2023-05-22T07:44:29.115Z,39.84
2023-05-22T07:45:29.119Z,39.65
2023-05-22T07:46:29.246Z,40.53
2023-05-22T07:47:29.169Z,41.24
2023-05-22T07:48:29.106Z,41.39
2023-05-22T07:49:29.118Z,42.80
2023-05-22T07:50:29.100Z,43.36
2023-05-22T07:51:29.100Z,44.08
2023-05-22T07:52:29.107Z,43.88
2023-05-22T07:53:29.093Z,43.67
2023-05-22T07:54:29.099Z,42.88
2023-05-22T07:55:29.348Z,43.24
2023-05-22T07:56:29.096Z,43.24
2023-05-22T07:57:29.086Z,42.79
2023-05-22T07:58:29.089Z,43.48
2023-05-22T07:59:29.104Z,44.08
2023-05-22T08:00:29.090Z,44.06
2023-05-22T08:01:29.085Z,44.10
2023-05-22T08:02:29.164Z,45.32
2023-05-22T08:03:29.389Z,45.75
2023-05-22T08:04:29.188Z,45.87
2023-05-22T08:05:29.080Z,45.87
2023-05-22T08:06:29.082Z,45.17
2023-05-22T08:07:29.073Z,45.56
2023-05-22T08:08:31.714Z,45.58
2023-05-22T08:09:29.065Z,45.79
2023-05-22T08:10:37.278Z,46.40
2023-05-22T08:11:29.189Z,46.13
2023-05-22T08:12:29.060Z,46.42
2023-05-22T08:13:29.078Z,46.54
2023-05-22T08:14:29.055Z,45.98
2023-05-22T08:15:29.053Z,46.78
2023-05-22T08:16:29.136Z,46.80
2023-05-22T08:17:29.070Z,47.41
2023-05-22T08:18:29.409Z,47.74
2023-05-22T08:19:29.127Z,48.08
2023-05-22T08:20:29.116Z,48.39
2023-05-22T08:21:29.041Z,48.35
2023-05-22T08:22:29.068Z,48.25
2023-05-22T08:23:29.042Z,48.78
2023-05-22T08:24:29.049Z,49.00
2023-05-22T08:25:29.053Z,48.51
2023-05-22T08:26:30.155Z,48.63
2023-05-22T08:27:29.086Z,49.61
2023-05-22T08:28:29.027Z,49.44
2023-05-22T08:29:29.079Z,49.85
2023-05-22T08:30:29.019Z,49.97
2023-05-22T08:31:29.065Z,49.99
2023-05-22T08:32:30.516Z,50.29
2023-05-22T08:33:29.007Z,50.19
2023-05-22T08:34:29.016Z,50.41
2023-05-22T08:35:29.014Z,51.02
2023-05-22T08:36:29.006Z,50.24
2023-05-22T08:37:28.996Z,49.83
2023-05-22T08:38:28.999Z,49.24
2023-05-22T08:39:28.989Z,49.12
2023-05-22T08:40:28.989Z,48.93
2023-05-22T08:41:28.989Z,48.90
2023-05-22T08:42:28.997Z,48.68
2023-05-22T08:43:29.328Z,48.75
2023-05-22T08:44:28.973Z,48.13
2023-05-22T08:45:28.979Z,48.00
2023-05-22T08:46:29.016Z,46.62
2023-05-22T08:47:28.979Z,47.08
2023-05-22T08:48:28.954Z,47.42
2023-05-22T08:49:28.952Z,46.62
2023-05-22T08:50:28.977Z,46.80
2023-05-22T08:51:28.973Z,46.19
2023-05-22T08:52:28.960Z,46.09
2023-05-22T08:53:28.942Z,46.34
2023-05-22T08:54:28.941Z,45.74
2023-05-22T08:55:28.933Z,45.35
2023-05-22T08:56:29.750Z,45.40
2023-05-22T08:57:28.941Z,44.10
2023-05-22T08:58:28.929Z,44.35
2023-05-22T08:59:28.922Z,44.76
2023-05-22T09:00:28.918Z,43.66
2023-05-22T09:01:28.942Z,43.35
2023-05-22T09:02:28.931Z,43.02
2023-05-22T09:03:29.029Z,42.90
2023-05-22T09:04:28.911Z,42.69
2023-05-22T09:05:28.905Z,42.46
2023-05-22T09:06:28.913Z,42.14
2023-05-22T09:07:28.917Z,42.58
2023-05-22T09:08:28.901Z,42.18
2023-05-22T09:09:28.894Z,41.18
2023-05-22T09:10:28.895Z,41.45
2023-05-22T09:11:28.901Z,41.79
2023-05-22T09:12:28.919Z,41.27
2023-05-22T09:13:28.890Z,40.77
2023-05-22T09:14:28.891Z,41.25
2023-05-22T09:15:29.008Z,40.85
2023-05-22T09:16:28.903Z,41.00
2023-05-22T09:17:28.904Z,40.88
2023-05-22T09:18:28.910Z,40.37
2023-05-22T09:19:28.956Z,41.01
2023-05-22T09:20:28.883Z,40.61
2023-05-22T09:21:30.556Z,39.62
2023-05-22T09:22:28.909Z,39.68
2023-05-22T09:23:28.887Z,39.47
2023-05-22T09:24:28.886Z,39.64
2023-05-22T09:25:28.888Z,39.33
2023-05-22T09:26:28.885Z,39.71
2023-05-22T09:27:28.888Z,39.71
2023-05-22T09:28:29.064Z,39.97
2023-05-22T09:29:28.897Z,39.50
2023-05-22T09:30:28.907Z,39.29
2023-05-22T09:31:29.103Z,38.99
2023-05-22T09:34:11.180Z,38.67
2023-05-22T09:35:11.675Z,39.20
2023-05-22T09:37:16.434Z,37.93
2023-05-22T09:38:16.362Z,38.08
2023-05-22T09:39:16.368Z,37.57
2023-05-22T09:40:17.677Z,37.44
2023-05-22T09:41:19.425Z,37.01
2023-05-22T09:42:16.368Z,36.51
2023-05-22T09:43:16.317Z,36.18
2023-05-22T09:44:16.510Z,36.15
2023-05-22T09:45:16.330Z,36.21
2023-05-22T09:46:16.357Z,36.09
2023-05-22T09:47:16.401Z,36.26
2023-05-22T09:48:16.361Z,35.66
2023-05-22T09:50:57.629Z,35.78
2023-05-22T09:51:58.262Z,35.02
2023-05-22T09:54:09.573Z,35.37
2023-05-22T09:55:02.867Z,36.15
2023-05-22T09:57:08.642Z,36.78
2023-05-22T09:58:08.604Z,36.44
2023-05-22T10:00:14.127Z,35.72
2023-05-22T10:01:13.949Z,36.11
2023-05-22T10:02:13.861Z,35.61
2023-05-22T10:03:14.193Z,35.50
2023-05-22T10:04:14.005Z,35.76
2023-05-22T10:05:13.799Z,35.56
2023-05-22T10:06:13.813Z,35.93
2023-05-22T10:07:13.869Z,35.61
2023-05-22T10:08:13.825Z,34.69
2023-05-22T10:09:13.826Z,34.67
2023-05-22T10:10:13.832Z,34.38
2023-05-22T10:11:13.844Z,34.56
2023-05-22T10:12:13.908Z,34.63
2023-05-22T10:13:13.888Z,34.43
2023-05-22T10:14:13.948Z,34.69
2023-05-22T10:15:13.878Z,34.86
2023-05-22T10:16:13.913Z,34.39
2023-05-22T10:17:13.888Z,34.66
2023-05-22T10:18:13.903Z,34.56
2023-05-22T10:19:14.116Z,34.10
2023-05-22T10:20:13.947Z,34.28
2023-05-22T10:21:13.929Z,34.19
2023-05-22T10:22:13.933Z,34.03
2023-05-22T10:23:13.945Z,34.30
2023-05-22T10:24:13.954Z,34.12
2023-05-22T10:25:14.125Z,34.10
2023-05-22T10:26:13.972Z,34.64
2023-05-22T10:27:13.981Z,34.73
2023-05-22T10:28:13.996Z,34.64
2023-05-22T10:29:14.041Z,34.62
2023-05-22T10:30:14.013Z,34.23
2023-05-22T10:31:14.016Z,35.60
2023-05-22T10:32:14.274Z,35.41
2023-05-22T10:33:15.270Z,34.47
2023-05-22T10:34:14.045Z,34.47
2023-05-22T10:35:14.161Z,35.21
2023-05-22T10:36:14.093Z,36.60
2023-05-22T10:37:18.116Z,37.06
2023-05-22T10:38:14.090Z,37.68
2023-05-22T10:39:14.111Z,38.24
2023-05-22T10:40:14.121Z,38.26
2023-05-22T10:41:18.244Z,38.28
2023-05-22T10:42:14.128Z,39.00
2023-05-22T10:43:14.134Z,38.21
2023-05-22T10:44:14.138Z,36.86
2023-05-22T10:45:14.153Z,36.71
2023-05-22T10:46:14.192Z,37.32
2023-05-22T10:47:14.175Z,38.06
2023-05-22T10:48:14.185Z,38.42
2023-05-22T10:49:14.180Z,38.32
2023-05-22T10:50:14.191Z,38.53
2023-05-22T10:51:14.357Z,38.49
2023-05-22T10:52:14.228Z,39.12
2023-05-22T10:53:14.213Z,39.35
2023-05-22T10:54:14.215Z,38.61
2023-05-22T10:55:14.243Z,38.84
2023-05-22T10:56:16.652Z,39.65
2023-05-22T10:57:14.238Z,39.28
2023-05-22T10:58:14.240Z,38.90
2023-05-22T10:59:14.247Z,38.90
2023-05-22T11:00:14.313Z,38.71
2023-05-22T11:01:14.357Z,39.01
2023-05-22T11:02:14.317Z,39.90
2023-05-22T11:03:18.331Z,39.64
2023-05-22T11:04:14.632Z,39.66
2023-05-22T11:05:14.287Z,40.08
2023-05-22T11:06:14.287Z,39.79
2023-05-22T11:07:14.396Z,38.65
2023-05-22T11:08:14.298Z,38.58
2023-05-22T11:09:14.299Z,38.24
2023-05-22T11:10:14.310Z,37.61
2023-05-22T11:11:14.400Z,37.54
2023-05-22T11:12:14.344Z,37.40
2023-05-22T11:13:14.314Z,37.90
2023-05-22T11:14:14.368Z,37.21
2023-05-22T11:15:14.324Z,37.29
2023-05-22T11:16:14.333Z,37.12
2023-05-22T11:17:14.459Z,37.12
2023-05-22T11:18:14.486Z,36.72
2023-05-22T11:19:23.310Z,37.23
2023-05-22T11:20:14.358Z,37.12
2023-05-22T11:21:14.348Z,36.78
2023-05-22T11:22:14.369Z,36.49
2023-05-22T11:23:14.456Z,36.02
2023-05-22T11:24:14.358Z,36.19
2023-05-22T11:25:14.360Z,36.14
2023-05-22T11:26:14.364Z,35.13
2023-05-22T11:27:14.373Z,35.63
2023-05-22T11:28:14.378Z,35.58
2023-05-22T11:29:14.380Z,34.88
2023-05-22T11:30:14.387Z,35.41
2023-05-22T11:31:14.431Z,35.38
2023-05-22T11:32:14.397Z,35.81
2023-05-22T11:33:14.670Z,35.30
2023-05-22T11:34:14.427Z,35.00
2023-05-22T11:35:14.419Z,34.99
2023-05-22T11:36:14.434Z,35.06
2023-05-22T11:37:14.427Z,35.35
2023-05-22T11:38:19.524Z,36.46
2023-05-22T11:39:14.533Z,36.20
2023-05-22T11:40:14.439Z,36.79
2023-05-22T11:41:14.434Z,36.95
2023-05-22T11:42:14.518Z,37.08
2023-05-22T11:43:14.446Z,36.95
2023-05-22T11:44:14.455Z,36.61
2023-05-22T11:45:14.458Z,36.78
2023-05-22T11:46:14.508Z,36.56
2023-05-22T11:47:14.473Z,36.63
2023-05-22T11:48:15.689Z,36.43
2023-05-22T11:49:14.490Z,36.60
2023-05-22T11:50:17.868Z,35.83
2023-05-22T11:51:14.497Z,36.11
2023-05-22T11:52:14.501Z,35.38
2023-05-22T11:53:14.510Z,35.57
2023-05-22T11:54:14.635Z,36.33
2023-05-22T11:55:19.646Z,36.33
2023-05-22T11:56:14.540Z,35.96
2023-05-22T11:57:14.535Z,36.80
2023-05-22T11:58:14.582Z,36.80
2023-05-22T11:59:14.553Z,36.82
2023-05-22T12:00:14.742Z,36.72
2023-05-22T12:01:14.611Z,37.30
2023-05-22T12:02:14.562Z,37.02
2023-05-22T12:03:14.639Z,37.49
2023-05-22T12:04:14.664Z,37.98
2023-05-22T12:05:14.578Z,37.53
2023-05-22T12:06:16.524Z,37.90
2023-05-22T12:07:14.597Z,38.20
2023-05-22T12:08:14.630Z,38.57
2023-05-22T12:09:14.611Z,38.41
2023-05-22T12:10:14.710Z,38.60
2023-05-22T12:11:14.836Z,38.24
2023-05-22T12:12:14.663Z,38.43
2023-05-22T12:13:14.632Z,38.45
2023-05-22T12:14:14.644Z,38.54
2023-05-22T12:15:14.654Z,38.45
2023-05-22T12:16:14.696Z,38.17
2023-05-22T12:17:14.682Z,39.48
2023-05-22T12:18:14.695Z,39.57
2023-05-22T12:19:14.727Z,38.92
2023-05-22T12:20:14.709Z,37.98
2023-05-22T12:21:14.698Z,38.28
2023-05-22T12:22:14.776Z,38.58
2023-05-22T12:23:14.736Z,38.49
2023-05-22T12:24:14.707Z,38.51
2023-05-22T12:25:14.716Z,38.79
2023-05-22T12:26:14.817Z,38.32
2023-05-22T12:27:14.729Z,38.81
2023-05-22T12:28:14.725Z,39.48
2023-05-22T12:29:14.730Z,39.20
2023-05-22T12:30:14.984Z,38.26
2023-05-22T12:31:14.782Z,39.34
2023-05-22T12:32:14.781Z,39.26
2023-05-22T12:33:15.437Z,39.09
2023-05-22T12:34:14.770Z,39.49
2023-05-22T12:35:14.772Z,39.32
2023-05-22T12:36:14.798Z,39.51
2023-05-22T12:37:14.792Z,39.15
2023-05-22T12:38:14.802Z,40.00
2023-05-22T12:39:14.830Z,39.72
2023-05-22T12:40:14.817Z,39.55
2023-05-22T12:41:14.849Z,39.29
2023-05-22T12:42:14.921Z,39.03
2023-05-22T12:43:15.132Z,39.63
2023-05-22T12:44:14.834Z,39.54
2023-05-22T12:45:15.860Z,39.65
2023-05-22T12:46:14.846Z,40.33
2023-05-22T12:47:14.845Z,40.80
2023-05-22T12:48:14.882Z,40.54
2023-05-22T12:49:14.860Z,40.73
2023-05-22T12:50:14.887Z,40.84
2023-05-22T12:51:14.865Z,41.03
2023-05-22T12:52:14.876Z,40.94
2023-05-22T12:53:14.875Z,40.68
2023-05-22T12:54:14.885Z,40.60
2023-05-22T12:55:14.885Z,41.08
2023-05-22T12:56:14.887Z,40.81
2023-05-22T12:57:14.903Z,40.64
2023-05-22T12:58:15.015Z,41.14
2023-05-22T12:59:14.899Z,41.35
2023-05-22T13:00:14.904Z,41.27
2023-05-22T13:01:14.930Z,42.15
2023-05-22T13:02:14.913Z,41.98
2023-05-22T13:03:14.916Z,42.65
2023-05-22T13:04:14.935Z,42.10
2023-05-22T13:05:14.961Z,42.33
2023-05-22T13:06:14.931Z,42.54
2023-05-22T13:07:14.939Z,42.20